Time;durP1;ratioP1;P1;durP2;ratioP2;P2;SDS_P1;SDS_P2;PMS_P1;PMS_P2;Temp;Humidity;BMP_temperature;BMP_pressure;BME280_temperature;BME280_humidity;BME280_pressure;Samples;Min_cycle;Max_cycle;Signal;HPM_P1;HPM_P2
2022/10/16 00:00:27;;;;;;;;;1.00;1.00;;;;;;;;5023451;28;63708;-76
2022/10/16 00:02:52;;;;;;;;;0.75;0.75;;;;;;;;5042438;28;62059;-75
2022/10/16 00:05:17;;;;;;;;;0.00;0.00;;;;;;;;5042750;28;61772;-76
2022/10/16 00:07:42;;;;;;;;;0.00;0.00;;;;;;;;5042880;28;61660;-76
2022/10/16 00:10:08;;;;;;;;;0.67;0.00;;;;;;;;5023640;28;64250;-75
2022/10/16 00:12:33;;;;;;;;;0.25;0.25;;;;;;;;5042468;28;61967;-75
2022/10/16 00:14:58;;;;;;;;;1.00;0.00;;;;;;;;5024605;28;61794;-76
2022/10/16 00:17:23;;;;;;;;;0.00;0.00;;;;;;;;5042601;28;61916;-75
2022/10/16 00:19:49;;;;;;;;;0.00;0.00;;;;;;;;5041777;28;61872;-76
2022/10/16 00:22:14;;;;;;;;;1.00;1.00;;;;;;;;5042043;28;61939;-75
2022/10/16 00:24:39;;;;;;;;;0.00;0.00;;;;;;;;5024283;28;61788;-76
2022/10/16 00:27:04;;;;;;;;;0.00;0.00;;;;;;;;5042571;28;61727;-75
2022/10/16 00:29:30;;;;;;;;;0.00;0.00;;;;;;;;5041638;28;62911;-76
2022/10/16 00:31:55;;;;;;;;;0.00;0.00;;;;;;;;5024245;28;61806;-76
2022/10/16 00:34:20;;;;;;;;;0.00;0.00;;;;;;;;5042055;28;61831;-75
2022/10/16 00:36:46;;;;;;;;;0.00;0.00;;;;;;;;5042349;28;61832;-75
2022/10/16 00:39:11;;;;;;;;;0.33;0.33;;;;;;;;5041470;28;61899;-75
2022/10/16 00:41:36;;;;;;;;;0.25;0.00;;;;;;;;5041655;28;61732;-75
2022/10/16 00:44:03;;;;;;;;;0.00;0.00;;;;;;;;5024366;28;61847;-75
2022/10/16 00:46:31;;;;;;;;;0.00;0.00;;;;;;;;5041899;28;62932;-76
2022/10/16 00:49:00;;;;;;;;;0.00;0.00;;;;;;;;5022900;28;63731;-75
2022/10/16 00:51:28;;;;;;;;;0.00;0.00;;;;;;;;5041689;28;61884;-76
2022/10/16 00:53:55;;;;;;;;;0.00;0.00;;;;;;;;5041969;28;61858;-75
2022/10/16 00:56:20;;;;;;;;;0.00;0.00;;;;;;;;5041839;28;61703;-76
2022/10/16 00:58:46;;;;;;;;;1.00;0.00;;;;;;;;5041423;28;61752;-75
2022/10/16 01:01:12;;;;;;;;;0.00;0.00;;;;;;;;5023582;28;62095;-75
2022/10/16 01:03:37;;;;;;;;;0.00;0.00;;;;;;;;5041471;28;61927;-76
2022/10/16 01:06:14;;;;;;;;;0.00;0.00;;;;;;;;5042277;28;61797;-75
2022/10/16 01:08:59;;;;;;;;;0.00;0.00;;;;;;;;5041380;28;61927;-75
2022/10/16 01:11:48;;;;;;;;;1.00;0.00;;;;;;;;5040438;28;61739;-75
2022/10/16 01:14:40;;;;;;;;;0.25;0.25;;;;;;;;5028640;28;61933;-76
2022/10/16 01:17:27;;;;;;;;;0.00;0.00;;;;;;;;5014054;28;62165;-75
2022/10/16 01:20:17;;;;;;;;;0.00;0.00;;;;;;;;5044201;28;61724;-75
2022/10/16 01:22:45;;;;;;;;;0.00;0.00;;;;;;;;5026758;28;61819;-76
2022/10/16 01:25:16;;;;;;;;;1.00;0.00;;;;;;;;5045077;28;61795;-76
2022/10/16 01:27:45;;;;;;;;;2.50;1.00;;;;;;;;5045309;28;61792;-75
2022/10/16 01:30:13;;;;;;;;;3.00;0.00;;;;;;;;5044180;28;61951;-76
2022/10/16 01:32:41;;;;;;;;;2.50;0.00;;;;;;;;5026431;28;61735;-75
2022/10/16 01:35:07;;;;;;;;;0.00;0.00;;;;;;;;5044885;28;61826;-75
2022/10/16 01:37:32;;;;;;;;;1.00;0.00;;;;;;;;5044564;28;61726;-75
2022/10/16 01:40:00;;;;;;;;;1.25;0.00;;;;;;;;5044261;28;61757;-76
2022/10/16 01:42:29;;;;;;;;;0.00;0.00;;;;;;;;5044471;28;62177;-75
2022/10/16 01:44:56;;;;;;;;;1.00;0.00;;;;;;;;5044890;28;61804;-76
2022/10/16 01:47:23;;;;;;;;;0.00;0.00;;;;;;;;5026873;28;61973;-75
2022/10/16 01:49:49;;;;;;;;;1.00;0.00;;;;;;;;5043677;28;61909;-75
2022/10/16 01:52:17;;;;;;;;;0.00;0.00;;;;;;;;5044668;28;61929;-75
2022/10/16 01:54:43;;;;;;;;;0.00;0.00;;;;;;;;5044531;28;61951;-75
2022/10/16 01:57:10;;;;;;;;;0.00;0.00;;;;;;;;5026866;28;62222;-76
2022/10/16 01:59:36;;;;;;;;;0.00;0.00;;;;;;;;5043936;28;62883;-76
2022/10/16 02:02:09;;;;;;;;;1.00;0.00;;;;;;;;5044158;28;61958;-75
2022/10/16 02:04:36;;;;;;;;;0.00;0.00;;;;;;;;5043923;28;61800;-75
2022/10/16 02:07:01;;;;;;;;;1.00;0.00;;;;;;;;5044647;28;61822;-75
2022/10/16 02:09:27;;;;;;;;;0.50;0.50;;;;;;;;5025764;28;64967;-75
2022/10/16 02:11:54;;;;;;;;;0.00;0.00;;;;;;;;5026234;28;61811;-76
2022/10/16 02:14:19;;;;;;;;;0.00;0.00;;;;;;;;5044528;28;62226;-76
2022/10/16 02:16:46;;;;;;;;;0.00;0.00;;;;;;;;5026215;28;61728;-75
2022/10/16 02:19:15;;;;;;;;;1.00;0.00;;;;;;;;5025243;28;64658;-75
2022/10/16 02:21:50;;;;;;;;;0.00;0.00;;;;;;;;5043811;28;61846;-75
2022/10/16 02:24:19;;;;;;;;;0.00;0.00;;;;;;;;5044110;28;61763;-75
2022/10/16 02:26:50;;;;;;;;;1.25;0.00;;;;;;;;5025921;28;62093;-75
2022/10/16 02:29:17;;;;;;;;;0.00;0.00;;;;;;;;5043439;28;62858;-75
2022/10/16 02:31:45;;;;;;;;;0.00;0.00;;;;;;;;5043686;28;62019;-75
2022/10/16 02:34:12;;;;;;;;;0.00;0.00;;;;;;;;5043962;28;61707;-76
2022/10/16 02:36:39;;;;;;;;;0.00;0.00;;;;;;;;5044020;28;61759;-75
2022/10/16 02:39:04;;;;;;;;;0.00;0.00;;;;;;;;5025178;28;64863;-75
2022/10/16 02:41:30;;;;;;;;;2.00;0.00;;;;;;;;5043851;28;61795;-76
2022/10/16 02:43:55;;;;;;;;;1.25;0.00;;;;;;;;5044101;28;61866;-75
2022/10/16 02:46:21;;;;;;;;;0.00;0.00;;;;;;;;5044077;28;61710;-76
2022/10/16 02:48:46;;;;;;;;;0.00;0.00;;;;;;;;5024728;28;63855;-75
2022/10/16 02:51:12;;;;;;;;;0.00;0.00;;;;;;;;5043723;28;61863;-75
2022/10/16 02:53:37;;;;;;;;;0.00;0.00;;;;;;;;5025583;28;61991;-75
2022/10/16 02:56:04;;;;;;;;;0.00;0.00;;;;;;;;5044038;28;61755;-75
2022/10/16 02:58:29;;;;;;;;;0.00;0.00;;;;;;;;5043063;28;62534;-75
2022/10/16 03:00:55;;;;;;;;;0.00;0.00;;;;;;;;5043125;28;61927;-76
2022/10/16 03:03:20;;;;;;;;;0.00;0.00;;;;;;;;5043267;28;61747;-75
2022/10/16 03:05:45;;;;;;;;;1.00;0.00;;;;;;;;5025618;28;62176;-75
2022/10/16 03:08:11;;;;;;;;;0.00;0.00;;;;;;;;5043127;28;61740;-76
2022/10/16 03:10:36;;;;;;;;;0.00;0.00;;;;;;;;5043432;28;61743;-76
2022/10/16 03:13:02;;;;;;;;;0.00;0.00;;;;;;;;5043510;28;61737;-76
2022/10/16 03:15:28;;;;;;;;;0.00;0.00;;;;;;;;5025707;28;61655;-76
2022/10/16 03:17:53;;;;;;;;;0.00;0.00;;;;;;;;5042590;28;62673;-75
2022/10/16 03:20:19;;;;;;;;;0.00;0.00;;;;;;;;5042964;28;61743;-75
2022/10/16 03:22:44;;;;;;;;;0.00;0.00;;;;;;;;5043605;28;61679;-75
2022/10/16 03:25:09;;;;;;;;;0.00;0.00;;;;;;;;5043585;28;61806;-75
2022/10/16 03:27:34;;;;;;;;;0.00;0.00;;;;;;;;5042851;28;61838;-76
2022/10/16 03:30:00;;;;;;;;;0.00;0.00;;;;;;;;5043350;28;61735;-75
2022/10/16 03:32:29;;;;;;;;;0.00;0.00;;;;;;;;5043107;28;62021;-75
2022/10/16 03:34:56;;;;;;;;;0.00;0.00;;;;;;;;5043379;28;62162;-75
2022/10/16 03:37:21;;;;;;;;;0.33;0.00;;;;;;;;5023694;28;64758;-76
2022/10/16 03:39:46;;;;;;;;;0.00;0.00;;;;;;;;5042962;28;61767;-75
2022/10/16 03:42:12;;;;;;;;;0.50;0.00;;;;;;;;5043203;28;61810;-76
2022/10/16 03:44:37;;;;;;;;;0.00;0.00;;;;;;;;5025360;28;61825;-75
2022/10/16 03:47:03;;;;;;;;;0.00;0.00;;;;;;;;5024002;28;63646;-75
2022/10/16 03:49:28;;;;;;;;;0.00;0.00;;;;;;;;5043175;28;61759;-76
2022/10/16 03:51:53;;;;;;;;;0.00;0.00;;;;;;;;5042867;28;62021;-75
2022/10/16 03:54:19;;;;;;;;;0.00;0.00;;;;;;;;5025171;28;61894;-75
2022/10/16 03:56:44;;;;;;;;;0.00;0.00;;;;;;;;5042619;28;62627;-75
2022/10/16 03:59:10;;;;;;;;;0.00;0.00;;;;;;;;5024692;28;61791;-76
2022/10/16 04:01:36;;;;;;;;;0.00;0.00;;;;;;;;5042694;28;61736;-75
2022/10/16 04:04:01;;;;;;;;;0.00;0.00;;;;;;;;5027776;28;61661;-76
2022/10/16 04:06:26;;;;;;;;;0.00;0.00;;;;;;;;5024124;28;63700;-75
2022/10/16 04:08:51;;;;;;;;;1.00;0.00;;;;;;;;5024741;28;61753;-75
2022/10/16 04:11:17;;;;;;;;;1.00;0.00;;;;;;;;5042787;28;61844;-76
2022/10/16 04:13:43;;;;;;;;;0.00;0.00;;;;;;;;5043195;28;62088;-76
2022/10/16 04:16:08;;;;;;;;;0.00;0.00;;;;;;;;5041624;28;62620;-75
2022/10/16 04:18:35;;;;;;;;;0.00;0.00;;;;;;;;5042202;28;61860;-76
2022/10/16 04:21:03;;;;;;;;;0.00;0.00;;;;;;;;5042474;28;61827;-76
2022/10/16 04:23:33;;;;;;;;;0.75;0.00;;;;;;;;5024581;28;61752;-75
2022/10/16 04:25:59;;;;;;;;;0.00;0.00;;;;;;;;5041775;28;61925;-76
2022/10/16 04:28:24;;;;;;;;;0.00;0.00;;;;;;;;5024245;28;61901;-76
2022/10/16 04:30:50;;;;;;;;;0.00;0.00;;;;;;;;5024182;28;62030;-75
2022/10/16 04:33:15;;;;;;;;;0.00;0.00;;;;;;;;5042621;28;61874;-75
2022/10/16 04:35:40;;;;;;;;;0.00;0.00;;;;;;;;5041652;28;61996;-75
2022/10/16 04:38:06;;;;;;;;;0.00;0.00;;;;;;;;5042205;28;62154;-75
2022/10/16 04:40:32;;;;;;;;;0.00;0.00;;;;;;;;5023866;28;61934;-76
2022/10/16 04:42:58;;;;;;;;;0.00;0.00;;;;;;;;5042226;28;61676;-75
2022/10/16 04:45:23;;;;;;;;;1.50;0.00;;;;;;;;5041378;28;61899;-75
2022/10/16 04:47:48;;;;;;;;;0.00;0.00;;;;;;;;5041748;28;61888;-75
2022/10/16 04:50:14;;;;;;;;;0.00;0.00;;;;;;;;5040995;28;62073;-76
2022/10/16 04:52:39;;;;;;;;;0.00;0.00;;;;;;;;5024382;28;61881;-76
2022/10/16 04:55:05;;;;;;;;;0.00;0.00;;;;;;;;5041287;28;63137;-76
2022/10/16 04:57:30;;;;;;;;;0.00;0.00;;;;;;;;5042222;28;61918;-75
2022/10/16 04:59:55;;;;;;;;;0.00;0.00;;;;;;;;5041597;28;61975;-75
2022/10/16 05:02:21;;;;;;;;;0.00;0.00;;;;;;;;5041725;28;61977;-75
2022/10/16 05:04:46;;;;;;;;;0.00;0.00;;;;;;;;5027562;28;63714;-76
2022/10/16 05:07:11;;;;;;;;;0.00;0.00;;;;;;;;5041782;28;61962;-75
2022/10/16 05:09:36;;;;;;;;;0.00;0.00;;;;;;;;5041921;28;61846;-76
2022/10/16 05:12:03;;;;;;;;;0.00;0.00;;;;;;;;5042156;28;61863;-75
2022/10/16 05:14:33;;;;;;;;;0.50;0.00;;;;;;;;5041087;28;61774;-76
2022/10/16 05:17:03;;;;;;;;;0.00;0.00;;;;;;;;5041494;28;61832;-75
2022/10/16 05:19:28;;;;;;;;;1.00;0.00;;;;;;;;5041555;28;61837;-75
2022/10/16 05:21:54;;;;;;;;;0.00;0.00;;;;;;;;5041834;28;61894;-76
2022/10/16 05:24:19;;;;;;;;;0.00;0.00;;;;;;;;5041209;28;61855;-76
2022/10/16 05:26:44;;;;;;;;;0.00;0.00;;;;;;;;5041717;28;61928;-76
2022/10/16 05:29:10;;;;;;;;;0.00;0.00;;;;;;;;5041364;28;62059;-75
2022/10/16 05:31:35;;;;;;;;;0.00;0.00;;;;;;;;5041840;28;61787;-75
2022/10/16 05:34:01;;;;;;;;;0.50;0.00;;;;;;;;5041037;28;61944;-75
2022/10/16 05:36:26;;;;;;;;;0.00;0.00;;;;;;;;5041371;28;62002;-75
2022/10/16 05:38:51;;;;;;;;;0.00;0.00;;;;;;;;5023615;28;61994;-75
2022/10/16 05:41:21;;;;;;;;;0.00;0.00;;;;;;;;5041555;28;61883;-75
2022/10/16 05:43:46;;;;;;;;;0.00;0.00;;;;;;;;5040626;28;62601;-75
2022/10/16 05:46:11;;;;;;;;;0.00;0.00;;;;;;;;5041166;28;62028;-75
2022/10/16 05:48:37;;;;;;;;;0.00;0.00;;;;;;;;5023389;28;61723;-75
2022/10/16 05:51:03;;;;;;;;;1.00;0.00;;;;;;;;5041586;28;62204;-75
2022/10/16 05:53:30;;;;;;;;;0.00;0.00;;;;;;;;5040511;28;61984;-75
2022/10/16 05:55:55;;;;;;;;;0.00;0.00;;;;;;;;5041258;28;61807;-76
2022/10/16 05:58:21;;;;;;;;;0.00;0.00;;;;;;;;5040928;28;61722;-75
2022/10/16 06:00:53;;;;;;;;;0.00;0.00;;;;;;;;5042610;28;61839;-75
2022/10/16 06:03:19;;;;;;;;;0.00;0.00;;;;;;;;5043765;28;62016;-75
2022/10/16 06:05:44;;;;;;;;;0.00;0.00;;;;;;;;5044753;28;62121;-76
2022/10/16 06:08:09;;;;;;;;;0.00;0.00;;;;;;;;5026864;28;61894;-75
2022/10/16 06:10:34;;;;;;;;;2.00;0.00;;;;;;;;5044661;28;61936;-75
2022/10/16 06:13:00;;;;;;;;;0.00;0.00;;;;;;;;5043828;28;61797;-76
2022/10/16 06:15:25;;;;;;;;;0.00;0.00;;;;;;;;5044445;28;61790;-75
2022/10/16 06:17:50;;;;;;;;;0.00;0.00;;;;;;;;5044369;28;61777;-75
2022/10/16 06:20:16;;;;;;;;;0.25;0.25;;;;;;;;5043868;28;62109;-75
2022/10/16 06:22:41;;;;;;;;;1.00;0.00;;;;;;;;5025851;28;63742;-76
2022/10/16 06:25:06;;;;;;;;;0.50;0.00;;;;;;;;5044344;28;62047;-76
2022/10/16 06:27:32;;;;;;;;;1.67;0.00;;;;;;;;5043928;28;61973;-76
2022/10/16 06:29:57;;;;;;;;;0.50;0.00;;;;;;;;5044487;28;62405;-75
2022/10/16 06:32:22;;;;;;;;;1.00;0.00;;;;;;;;5043203;28;61988;-76
2022/10/16 06:34:47;;;;;;;;;2.00;0.00;;;;;;;;5044335;28;61802;-76
2022/10/16 06:37:13;;;;;;;;;0.00;0.00;;;;;;;;5044283;28;61889;-76
2022/10/16 06:39:38;;;;;;;;;1.75;0.00;;;;;;;;5025962;28;61949;-76
2022/10/16 06:42:04;;;;;;;;;0.25;0.25;;;;;;;;5025112;28;63607;-75
2022/10/16 06:44:29;;;;;;;;;0.00;0.00;;;;;;;;5043806;28;62037;-75
2022/10/16 06:46:54;;;;;;;;;0.00;0.00;;;;;;;;5044144;28;61859;-76
2022/10/16 06:49:22;;;;;;;;;0.75;0.00;;;;;;;;5043971;28;61890;-75
2022/10/16 06:51:47;;;;;;;;;0.00;0.00;;;;;;;;5042470;28;61930;-76
2022/10/16 06:54:14;;;;;;;;;0.00;0.00;;;;;;;;5043444;28;61770;-76
2022/10/16 06:56:39;;;;;;;;;0.00;0.00;;;;;;;;5025581;28;61907;-75
2022/10/16 06:59:05;;;;;;;;;0.00;0.00;;;;;;;;5043752;28;61814;-76
2022/10/16 07:01:30;;;;;;;;;0.50;0.50;;;;;;;;5042324;28;61967;-76
2022/10/16 07:03:55;;;;;;;;;0.75;0.75;;;;;;;;5027933;28;61848;-76
2022/10/16 07:06:22;;;;;;;;;2.75;1.75;;;;;;;;5042922;28;61998;-75
2022/10/16 07:08:47;;;;;;;;;6.75;5.00;;;;;;;;5025189;28;61832;-75
2022/10/16 07:11:14;;;;;;;;;1.00;0.50;;;;;;;;5023865;28;64920;-75
2022/10/16 07:13:40;;;;;;;;;2.00;1.00;;;;;;;;5022624;28;61890;-75
2022/10/16 07:16:06;;;;;;;;;2.00;0.00;;;;;;;;5023114;28;62008;-75
2022/10/16 07:18:32;;;;;;;;;0.00;0.00;;;;;;;;5042405;28;62330;-76
2022/10/16 07:21:07;;;;;;;;;1.00;0.00;;;;;;;;5042246;28;62831;-76
2022/10/16 07:23:33;;;;;;;;;0.00;0.00;;;;;;;;5041695;28;61801;-76
2022/10/16 07:25:59;;;;;;;;;0.00;0.00;;;;;;;;5025177;28;62323;-76
2022/10/16 07:28:24;;;;;;;;;0.00;0.00;;;;;;;;5042935;28;62429;-76
2022/10/16 07:30:50;;;;;;;;;0.00;0.00;;;;;;;;5042130;28;62626;-76
2022/10/16 07:33:15;;;;;;;;;0.00;0.00;;;;;;;;5024682;28;62157;-76
2022/10/16 07:35:58;;;;;;;;;1.00;0.00;;;;;;;;5042376;28;61819;-76
2022/10/16 07:38:24;;;;;;;;;0.00;0.00;;;;;;;;5022546;28;61706;-75
2022/10/16 07:40:55;;;;;;;;;0.25;0.25;;;;;;;;5041958;28;62806;-75
2022/10/16 07:43:21;;;;;;;;;0.00;0.00;;;;;;;;5036094;28;61945;-83
2022/10/16 07:45:47;;;;;;;;;0.75;0.00;;;;;;;;5040817;28;62164;-79
2022/10/16 07:48:13;;;;;;;;;0.75;0.75;;;;;;;;5042996;28;61871;-80
2022/10/16 07:51:07;;;;;;;;;0.25;0.25;;;;;;;;5044370;28;62590;-81
2022/10/16 07:53:33;;;;;;;;;0.00;0.00;;;;;;;;5024189;28;61950;-81
2022/10/16 07:56:01;;;;;;;;;0.25;0.00;;;;;;;;5042749;28;61743;-81
2022/10/16 07:58:27;;;;;;;;;0.00;0.00;;;;;;;;5026457;28;62044;-75
2022/10/16 08:00:53;;;;;;;;;0.00;0.00;;;;;;;;5030528;28;65013;-81
2022/10/16 08:03:18;;;;;;;;;0.00;0.00;;;;;;;;5035914;28;61879;-81
2022/10/16 08:05:43;;;;;;;;;0.67;0.67;;;;;;;;5030178;28;62199;-81
2022/10/16 08:08:12;;;;;;;;;0.00;0.00;;;;;;;;5053285;28;62175;-81
2022/10/16 08:10:38;;;;;;;;;1.00;1.00;;;;;;;;5049772;28;62784;-79
2022/10/16 08:13:03;;;;;;;;;0.00;0.00;;;;;;;;5052673;28;61748;-80
2022/10/16 08:15:29;;;;;;;;;0.00;0.00;;;;;;;;5048697;28;61845;-83
2022/10/16 08:17:59;;;;;;;;;0.00;0.00;;;;;;;;5031570;28;61812;-83
2022/10/16 08:20:25;;;;;;;;;0.00;0.00;;;;;;;;5049127;28;61857;-81
2022/10/16 08:22:50;;;;;;;;;0.00;0.00;;;;;;;;5052067;28;62006;-78
2022/10/16 08:25:16;;;;;;;;;1.00;0.00;;;;;;;;5054828;28;61695;-81
2022/10/16 08:27:41;;;;;;;;;0.00;0.00;;;;;;;;5032003;28;61967;-80
2022/10/16 08:30:07;;;;;;;;;0.67;0.00;;;;;;;;5048664;28;62088;-75
2022/10/16 08:32:32;;;;;;;;;1.00;1.00;;;;;;;;5029270;28;62099;-75
2022/10/16 08:34:57;;;;;;;;;0.00;0.00;;;;;;;;5052532;28;61832;-83
2022/10/16 08:37:23;;;;;;;;;4.00;4.00;;;;;;;;5032834;28;62136;-81
2022/10/16 08:39:53;;;;;;;;;2.00;1.00;;;;;;;;5052399;28;62330;-79
2022/10/16 08:42:31;;;;;;;;;3.75;2.25;;;;;;;;5050575;28;62045;-80
2022/10/16 08:45:08;;;;;;;;;1.50;1.50;;;;;;;;5023485;28;61954;-82
2022/10/16 08:47:53;;;;;;;;;0.00;0.00;;;;;;;;5020565;28;61862;-79
2022/10/16 08:50:23;;;;;;;;;0.00;0.00;;;;;;;;5019103;28;63877;-80
2022/10/16 08:52:50;;;;;;;;;0.33;0.33;;;;;;;;5004862;28;61988;-82
2022/10/16 08:55:39;;;;;;;;;0.33;0.00;;;;;;;;4999985;28;61827;-83
2022/10/16 08:58:12;;;;;;;;;0.33;0.33;;;;;;;;4995055;28;61925;-81
2022/10/16 09:00:38;;;;;;;;;0.33;0.33;;;;;;;;4998122;28;63746;-81
2022/10/16 09:03:10;;;;;;;;;0.00;0.00;;;;;;;;4998687;28;62035;-80
2022/10/16 09:05:45;;;;;;;;;0.33;0.33;;;;;;;;4999209;28;62099;-81
2022/10/16 09:08:16;;;;;;;;;1.00;0.67;;;;;;;;4998394;28;61780;-79
2022/10/16 09:10:56;;;;;;;;;0.00;0.00;;;;;;;;5001057;28;64020;-79
2022/10/16 09:13:21;;;;;;;;;0.00;0.00;;;;;;;;5006107;28;62152;-80
2022/10/16 09:15:52;;;;;;;;;1.00;0.00;;;;;;;;5006144;28;61769;-79
2022/10/16 09:18:24;;;;;;;;;0.33;0.33;;;;;;;;5007421;28;62104;-80
2022/10/16 09:20:51;;;;;;;;;37.75;28.50;;;;;;;;5007590;28;64162;-81
2022/10/16 09:23:27;;;;;;;;;0.00;0.00;;;;;;;;5009819;28;62060;-82
2022/10/16 09:25:54;;;;;;;;;2.33;1.00;;;;;;;;4998697;28;61991;-82
2022/10/16 09:28:20;;;;;;;;;2.67;1.67;;;;;;;;4997951;28;62129;-83
2022/10/16 09:30:48;;;;;;;;;1.33;1.00;;;;;;;;4998842;28;61842;-83
2022/10/16 09:33:14;;;;;;;;;2.67;1.67;;;;;;;;5000975;28;62493;-79
2022/10/16 09:35:42;;;;;;;;;1.00;1.00;;;;;;;;5001082;28;61945;-76
2022/10/16 09:38:07;;;;;;;;;0.67;0.67;;;;;;;;5003142;28;61808;-79
2022/10/16 09:40:37;;;;;;;;;1.00;1.00;;;;;;;;5003132;28;61927;-81
2022/10/16 09:43:12;;;;;;;;;1.00;1.00;;;;;;;;5003305;28;62434;-79
2022/10/16 09:45:37;;;;;;;;;0.00;0.00;;;;;;;;4997387;28;62152;-81
2022/10/16 09:48:13;;;;;;;;;2.00;0.00;;;;;;;;5004640;28;62059;-79
2022/10/16 09:50:38;;;;;;;;;2.33;0.67;;;;;;;;4999502;28;64932;-82
2022/10/16 09:53:14;;;;;;;;;2.67;1.00;;;;;;;;5005016;28;61885;-82
2022/10/16 09:55:49;;;;;;;;;1.33;0.00;;;;;;;;5008738;28;61969;-83
2022/10/16 09:58:15;;;;;;;;;0.67;0.67;;;;;;;;5015108;28;62122;-79
2022/10/16 10:00:41;;;;;;;;;2.33;1.00;;;;;;;;5005912;28;63626;-84
2022/10/16 10:03:11;;;;;;;;;2.00;0.00;;;;;;;;5012378;28;61841;-84
2022/10/16 10:05:39;;;;;;;;;1.00;1.00;;;;;;;;5006090;28;61908;-82
2022/10/16 10:08:05;;;;;;;;;1.33;1.33;;;;;;;;5017429;28;62329;-81
2022/10/16 10:10:32;;;;;;;;;2.00;1.00;;;;;;;;5000141;28;63003;-83
2022/10/16 10:12:57;;;;;;;;;1.33;1.33;;;;;;;;5002030;28;62216;-82
2022/10/16 10:15:23;;;;;;;;;3.00;2.00;;;;;;;;5002137;28;62141;-79
2022/10/16 10:17:56;;;;;;;;;0.67;0.67;;;;;;;;5004377;28;61820;-79
2022/10/16 10:20:23;;;;;;;;;2.00;1.33;;;;;;;;5002025;28;64818;-80
2022/10/16 10:22:48;;;;;;;;;2.00;1.00;;;;;;;;5002898;28;61923;-82
2022/10/16 10:25:17;;;;;;;;;3.33;1.33;;;;;;;;5002432;28;61970;-79
2022/10/16 10:28:08;;;;;;;;;1.33;0.67;;;;;;;;5002477;28;62222;-81
2022/10/16 10:30:42;;;;;;;;;2.67;1.00;;;;;;;;5001952;28;63694;-81
2022/10/16 10:33:22;;;;;;;;;2.00;2.00;;;;;;;;5004026;28;61852;-81
2022/10/16 10:36:13;;;;;;;;;2.00;2.00;;;;;;;;5003977;28;61658;-81
2022/10/16 10:38:57;;;;;;;;;1.00;1.00;;;;;;;;4994026;28;62400;-83
2022/10/16 10:41:42;;;;;;;;;2.00;2.00;;;;;;;;5003504;28;63251;-83
2022/10/16 10:44:13;;;;;;;;;3.00;2.00;;;;;;;;5004480;28;61842;-83
2022/10/16 10:46:45;;;;;;;;;2.00;1.33;;;;;;;;5001838;28;61835;-83
2022/10/16 10:49:19;;;;;;;;;0.67;0.67;;;;;;;;5002616;28;61923;-83
2022/10/16 10:51:51;;;;;;;;;1.33;1.33;;;;;;;;5009757;28;61748;-77
2022/10/16 10:54:37;;;;;;;;;3.67;1.00;;;;;;;;5044147;28;61828;-78
2022/10/16 10:57:12;;;;;;;;;2.67;1.67;;;;;;;;5024481;28;61783;-78
2022/10/16 10:59:37;;;;;;;;;1.67;0.67;;;;;;;;5025707;28;61781;-78
2022/10/16 11:02:05;;;;;;;;;1.67;1.67;;;;;;;;5024354;28;63862;-79
2022/10/16 11:04:49;;;;;;;;;1.00;1.00;;;;;;;;5025717;28;61765;-78
2022/10/16 11:07:21;;;;;;;;;2.00;2.00;;;;;;;;5043263;28;61853;-79
2022/10/16 11:09:53;;;;;;;;;2.00;1.33;;;;;;;;5043589;28;61917;-79
2022/10/16 11:12:25;;;;;;;;;2.67;1.00;;;;;;;;5042946;28;62809;-79
2022/10/16 11:14:56;;;;;;;;;1.00;1.00;;;;;;;;5043181;28;62041;-77
2022/10/16 11:17:25;;;;;;;;;6.33;3.00;;;;;;;;5025265;28;62000;-78
2022/10/16 11:19:54;;;;;;;;;1.00;1.00;;;;;;;;5043525;28;61903;-78
2022/10/16 11:22:22;;;;;;;;;0.67;0.67;;;;;;;;5042544;28;61853;-78
2022/10/16 11:24:58;;;;;;;;;2.33;1.00;;;;;;;;5043417;28;62064;-78
2022/10/16 11:27:30;;;;;;;;;1.33;1.33;;;;;;;;5043111;28;62041;-78
2022/10/16 11:29:58;;;;;;;;;0.67;0.00;;;;;;;;5043267;28;61704;-80
2022/10/16 11:32:28;;;;;;;;;0.33;0.00;;;;;;;;5042756;28;61828;-79
2022/10/16 11:34:57;;;;;;;;;0.00;0.00;;;;;;;;5024671;28;61795;-77
2022/10/16 11:37:32;;;;;;;;;0.00;0.00;;;;;;;;5025064;28;61818;-78
2022/10/16 11:40:25;;;;;;;;;1.33;1.33;;;;;;;;5042153;28;62743;-79
2022/10/16 11:43:16;;;;;;;;;0.00;0.00;;;;;;;;5038520;28;62782;-80
2022/10/16 11:45:44;;;;;;;;;1.00;0.67;;;;;;;;5039925;28;62180;-83
2022/10/16 11:48:16;;;;;;;;;1.00;1.00;;;;;;;;5027269;28;61890;-78
2022/10/16 11:50:45;;;;;;;;;0.00;0.00;;;;;;;;5025871;28;62225;-78
2022/10/16 11:53:13;;;;;;;;;1.00;1.00;;;;;;;;5040106;28;62712;-79
2022/10/16 11:55:42;;;;;;;;;3.00;0.00;;;;;;;;5041090;28;61976;-79
2022/10/16 11:58:28;;;;;;;;;0.00;0.00;;;;;;;;5040839;28;61783;-80
2022/10/16 12:00:58;;;;;;;;;0.00;0.00;;;;;;;;5037513;28;61834;-79
2022/10/16 12:03:30;;;;;;;;;0.00;0.00;;;;;;;;5040089;28;61801;-79
2022/10/16 12:05:56;;;;;;;;;0.00;0.00;;;;;;;;5010480;28;61979;-79
2022/10/16 12:08:21;;;;;;;;;0.00;0.00;;;;;;;;5028839;28;62183;-79
2022/10/16 12:10:47;;;;;;;;;0.00;0.00;;;;;;;;5032378;28;62450;-79
2022/10/16 12:13:28;;;;;;;;;1.00;0.00;;;;;;;;5030131;28;61900;-80
2022/10/16 12:16:04;;;;;;;;;0.33;0.33;;;;;;;;5001965;28;62036;-80
2022/10/16 12:18:29;;;;;;;;;0.00;0.00;;;;;;;;5032125;28;61856;-79
2022/10/16 12:20:58;;;;;;;;;0.00;0.00;;;;;;;;5035962;28;62008;-80
2022/10/16 12:23:25;;;;;;;;;0.00;0.00;;;;;;;;5035922;28;63110;-80
2022/10/16 12:25:54;;;;;;;;;0.00;0.00;;;;;;;;5036482;28;62062;-79
2022/10/16 12:28:27;;;;;;;;;1.00;0.00;;;;;;;;5046850;28;61937;-79
2022/10/16 12:30:53;;;;;;;;;0.00;0.00;;;;;;;;5048443;28;62529;-79
2022/10/16 12:33:24;;;;;;;;;0.00;0.00;;;;;;;;5045971;28;62100;-82
2022/10/16 12:35:50;;;;;;;;;0.67;0.00;;;;;;;;5004380;28;61727;-82
2022/10/16 12:38:17;;;;;;;;;1.00;0.00;;;;;;;;5006684;28;62295;-78
2022/10/16 12:40:43;;;;;;;;;0.00;0.00;;;;;;;;5041168;28;61768;-78
2022/10/16 12:43:12;;;;;;;;;0.00;0.00;;;;;;;;5040187;28;63027;-78
2022/10/16 12:45:37;;;;;;;;;0.00;0.00;;;;;;;;5042246;28;61914;-78
2022/10/16 12:48:17;;;;;;;;;0.00;0.00;;;;;;;;5040533;28;61910;-78
2022/10/16 12:50:43;;;;;;;;;0.00;0.00;;;;;;;;5041404;28;61970;-78
2022/10/16 12:53:38;;;;;;;;;0.67;0.00;;;;;;;;5040087;28;61808;-78
2022/10/16 12:56:29;;;;;;;;;3.67;3.33;;;;;;;;5024198;28;61982;-78
2022/10/16 12:58:57;;;;;;;;;16.33;12.00;;;;;;;;5021789;28;62040;-77
2022/10/16 13:01:34;;;;;;;;;4.50;2.00;;;;;;;;5038393;28;61966;-78
2022/10/16 13:03:59;;;;;;;;;16.00;10.67;;;;;;;;5040020;28;62128;-78
2022/10/16 13:06:27;;;;;;;;;0.00;0.00;;;;;;;;5040663;28;61993;-78
2022/10/16 13:09:06;;;;;;;;;0.00;0.00;;;;;;;;5040809;28;61901;-78
2022/10/16 13:11:31;;;;;;;;;2.00;2.00;;;;;;;;5027699;28;61913;-78
2022/10/16 13:14:06;;;;;;;;;1.00;1.00;;;;;;;;5025575;28;63713;-78
2022/10/16 13:16:46;;;;;;;;;3.00;0.00;;;;;;;;5044214;28;61868;-78
2022/10/16 13:19:24;;;;;;;;;1.67;1.00;;;;;;;;5042609;28;62057;-78
2022/10/16 13:22:11;;;;;;;;;1.00;1.00;;;;;;;;5042728;28;61725;-78
2022/10/16 13:24:36;;;;;;;;;1.33;0.00;;;;;;;;5024980;28;64514;-78
2022/10/16 13:27:08;;;;;;;;;0.00;0.00;;;;;;;;5043635;28;61819;-78
2022/10/16 13:29:33;;;;;;;;;1.00;1.00;;;;;;;;5026261;28;61945;-78
2022/10/16 13:32:00;;;;;;;;;0.67;0.67;;;;;;;;5044287;28;61857;-78
2022/10/16 13:34:26;;;;;;;;;1.67;0.00;;;;;;;;5025252;28;65344;-78
2022/10/16 13:36:52;;;;;;;;;0.67;0.67;;;;;;;;5027187;28;61890;-78
2022/10/16 13:39:30;;;;;;;;;2.00;2.00;;;;;;;;5026294;28;62376;-78
2022/10/16 13:41:58;;;;;;;;;2.67;1.00;;;;;;;;5026664;28;61786;-78
2022/10/16 13:44:23;;;;;;;;;2.33;1.33;;;;;;;;5043938;28;64205;-78
2022/10/16 13:46:58;;;;;;;;;0.00;0.00;;;;;;;;5044653;28;62326;-78
2022/10/16 13:49:23;;;;;;;;;0.33;0.33;;;;;;;;5044373;28;62006;-78
2022/10/16 13:51:55;;;;;;;;;1.00;1.00;;;;;;;;5044434;28;61803;-78
2022/10/16 13:54:21;;;;;;;;;0.67;0.67;;;;;;;;5025313;28;64432;-78
2022/10/16 13:56:46;;;;;;;;;0.67;0.67;;;;;;;;5043287;28;61935;-78
2022/10/16 13:59:23;;;;;;;;;2.00;0.67;;;;;;;;5043319;28;61918;-78
2022/10/16 14:01:50;;;;;;;;;2.00;1.00;;;;;;;;5042181;28;61906;-78
2022/10/16 14:04:15;;;;;;;;;1.00;1.00;;;;;;;;5042245;28;61792;-78
2022/10/16 14:06:43;;;;;;;;;0.33;0.00;;;;;;;;5043461;28;61707;-78
2022/10/16 14:09:12;;;;;;;;;1.00;1.00;;;;;;;;5026213;28;62322;-78
2022/10/16 14:11:43;;;;;;;;;1.00;1.00;;;;;;;;5025252;28;62006;-78
2022/10/16 14:14:11;;;;;;;;;2.00;2.00;;;;;;;;5043940;28;61780;-78
2022/10/16 14:16:40;;;;;;;;;2.33;1.67;;;;;;;;5044277;28;61797;-78
2022/10/16 14:19:06;;;;;;;;;4.67;1.67;;;;;;;;5043716;28;61701;-78
2022/10/16 14:21:32;;;;;;;;;1.00;1.00;;;;;;;;5043174;28;61916;-78
2022/10/16 14:23:57;;;;;;;;;2.00;2.00;;;;;;;;5043017;28;61988;-77
2022/10/16 14:26:24;;;;;;;;;0.67;0.67;;;;;;;;5043500;28;62092;-78
2022/10/16 14:29:01;;;;;;;;;1.00;1.00;;;;;;;;5026025;28;61974;-77
2022/10/16 14:31:26;;;;;;;;;2.00;1.00;;;;;;;;5026693;28;61838;-77
2022/10/16 14:33:51;;;;;;;;;1.00;1.00;;;;;;;;5042968;28;62823;-78
2022/10/16 14:36:18;;;;;;;;;1.67;0.67;;;;;;;;5025482;28;61945;-77
2022/10/16 14:38:56;;;;;;;;;1.67;1.67;;;;;;;;5042320;28;62020;-78
2022/10/16 14:41:23;;;;;;;;;2.00;2.00;;;;;;;;5043019;28;61857;-77
2022/10/16 14:43:51;;;;;;;;;1.00;1.00;;;;;;;;5023606;28;64743;-77
2022/10/16 14:46:21;;;;;;;;;1.33;1.33;;;;;;;;5039674;28;61788;-77
2022/10/16 14:48:48;;;;;;;;;0.67;0.67;;;;;;;;5023201;28;61866;-77
2022/10/16 14:51:14;;;;;;;;;1.67;1.67;;;;;;;;5021213;28;62819;-78